Time;durP1;ratioP1;P1;durP2;ratioP2;P2;SDS_P1;SDS_P2;PMS_P1;PMS_P2;Temp;Humidity;BMP_temperature;BMP_pressure;BME280_temperature;BME280_humidity;BME280_pressure;Samples;Min_cycle;Max_cycle;Signal;HPM_P1;HPM_P2
2023/07/25 00:01:36;;;;;;;2.85;1.50;;;11.30;99.90;;;;;;4979556;28;20058;-94
2023/07/25 00:04:01;;;;;;;2.00;1.60;;;11.30;99.90;;;;;;4979132;28;20089;-93
2023/07/25 00:06:27;;;;;;;6.43;1.70;;;11.30;99.90;;;;;;4978667;28;20089;-94
2023/07/25 00:08:52;;;;;;;9.13;1.77;;;11.30;99.90;;;;;;4978465;28;20480;-93
2023/07/25 00:11:18;;;;;;;4.18;1.73;;;11.30;99.90;;;;;;4979113;28;20022;-93
2023/07/25 00:13:44;;;;;;;3.58;1.50;;;11.30;99.90;;;;;;4978730;28;20033;-95
2023/07/25 00:16:09;;;;;;;6.05;1.70;;;11.20;99.90;;;;;;4979872;28;20023;-94
2023/07/25 00:18:35;;;;;;;3.10;2.00;;;11.20;99.90;;;;;;4979712;28;20022;-94
2023/07/25 00:21:01;;;;;;;6.15;1.90;;;11.20;99.90;;;;;;4979783;28;20034;-94
2023/07/25 00:23:26;;;;;;;2.47;1.65;;;11.20;99.90;;;;;;4978899;28;20034;-94
2023/07/25 00:25:52;;;;;;;1.70;1.60;;;11.20;99.90;;;;;;4978410;28;20034;-93
2023/07/25 00:28:18;;;;;;;1.55;1.42;;;11.10;99.90;;;;;;4978409;28;20037;-93
2023/07/25 00:30:43;;;;;;;4.28;1.55;;;11.10;99.90;;;;;;4995215;28;20030;-91
2023/07/25 00:33:09;;;;;;;4.47;1.50;;;11.10;99.90;;;;;;4978148;28;20018;-93
2023/07/25 00:35:34;;;;;;;2.53;1.63;;;11.10;99.90;;;;;;4976063;28;20030;-94
2023/07/25 00:38:03;;;;;;;3.55;1.40;;;11.00;99.90;;;;;;4956266;29;20103;-94
2023/07/25 00:40:28;;;;;;;2.53;1.75;;;11.00;99.90;;;;;;4959488;29;20047;-94
2023/07/25 00:42:55;;;;;;;4.35;1.60;;;10.90;99.90;;;;;;4970908;28;20284;-93
2023/07/25 00:45:22;;;;;;;5.88;1.80;;;10.90;99.90;;;;;;4976538;28;20132;-92
2023/07/25 00:47:48;;;;;;;7.03;1.77;;;10.90;99.90;;;;;;4979333;28;20027;-92
2023/07/25 00:50:14;;;;;;;7.60;1.77;;;10.80;99.90;;;;;;4983848;28;20026;-94
2023/07/25 00:52:41;;;;;;;2.03;1.40;;;10.80;99.90;;;;;;4960594;28;20374;-94
2023/07/25 00:55:07;;;;;;;4.63;1.67;;;10.80;99.90;;;;;;4965044;29;20039;-94
2023/07/25 00:57:33;;;;;;;4.10;1.50;;;10.70;99.90;;;;;;4967319;29;20054;-93
2023/07/25 00:59:58;;;;;;;5.90;1.70;;;10.70;99.90;;;;;;4964801;28;20050;-95
2023/07/25 01:02:25;;;;;;;3.15;1.80;;;10.60;99.90;;;;;;4960081;28;20034;-94
2023/07/25 01:04:50;;;;;;;5.38;1.38;;;10.60;99.90;;;;;;4963319;28;20022;-93
2023/07/25 01:07:17;;;;;;;5.88;1.80;;;10.60;99.90;;;;;;4969972;28;20031;-92
2023/07/25 01:09:45;;;;;;;4.97;1.70;;;10.60;99.90;;;;;;4979626;28;20146;-93
2023/07/25 01:12:13;;;;;;;3.25;1.70;;;10.50;99.90;;;;;;4977547;28;20034;-93
2023/07/25 01:14:39;;;;;;;3.72;1.80;;;10.50;99.90;;;;;;4974858;28;20023;-91
2023/07/25 01:17:20;;;;;;;5.05;1.65;;;10.50;99.90;;;;;;4989057;28;20079;-94
2023/07/25 01:19:47;;;;;;;4.65;1.50;;;10.40;99.90;;;;;;4970595;28;20019;-94
2023/07/25 01:22:14;;;;;;;2.28;1.88;;;10.40;99.90;;;;;;4969365;28;20061;-93
2023/07/25 01:24:45;;;;;;;4.93;1.50;;;10.40;99.90;;;;;;4965709;28;20052;-93
2023/07/25 01:27:11;;;;;;;4.05;1.58;;;10.30;99.90;;;;;;4964313;28;20042;-94
2023/07/25 01:29:37;;;;;;;5.50;1.60;;;10.30;99.90;;;;;;4982109;28;20038;-93
2023/07/25 01:32:03;;;;;;;6.00;2.15;;;10.30;99.90;;;;;;4966181;28;20026;-95
2023/07/25 01:34:29;;;;;;;5.93;1.83;;;10.30;99.90;;;;;;4966445;28;20042;-93
2023/07/25 01:36:54;;;;;;;4.53;1.77;;;10.30;99.90;;;;;;4969475;28;20031;-93
2023/07/25 01:39:20;;;;;;;2.67;1.52;;;10.30;99.90;;;;;;4973072;28;20035;-95
2023/07/25 01:41:46;;;;;;;7.68;1.83;;;10.30;99.90;;;;;;4978051;28;20022;-94
2023/07/25 01:44:12;;;;;;;2.95;1.88;;;10.30;99.90;;;;;;4972753;28;20046;-92
2023/07/25 01:46:40;;;;;;;2.72;1.63;;;10.20;99.90;;;;;;4970310;28;20034;-93
2023/07/25 01:49:08;;;;;;;3.00;1.63;;;10.20;99.90;;;;;;4970940;28;20019;-94
2023/07/25 01:51:34;;;;;;;3.05;1.73;;;10.20;99.90;;;;;;4970305;28;20027;-94
2023/07/25 01:53:59;;;;;;;2.45;1.65;;;10.20;99.90;;;;;;4972448;28;20125;-92
2023/07/25 01:56:26;;;;;;;3.45;1.88;;;10.20;99.90;;;;;;4971009;28;20098;-90
2023/07/25 01:58:52;;;;;;;3.08;2.00;;;10.10;99.90;;;;;;4972914;28;20059;-95
2023/07/25 02:01:17;;;;;;;4.63;1.67;;;10.10;99.90;;;;;;4961562;28;20030;-95
2023/07/25 02:03:44;;;;;;;3.25;1.60;;;10.10;99.90;;;;;;4963109;28;20054;-95
2023/07/25 02:06:09;;;;;;;6.45;2.05;;;10.00;99.90;;;;;;4961713;28;20054;-94
2023/07/25 02:08:35;;;;;;;3.90;1.55;;;10.00;99.90;;;;;;4961195;28;20473;-95
2023/07/25 02:11:01;;;;;;;2.22;1.90;;;9.90;99.90;;;;;;4964778;28;20027;-95
2023/07/25 02:13:26;;;;;;;4.28;1.75;;;9.80;99.90;;;;;;4967836;28;20269;-94
2023/07/25 02:15:52;;;;;;;6.55;2.63;;;9.80;99.90;;;;;;4980152;28;20026;-89
2023/07/25 02:18:19;;;;;;;3.42;1.88;;;9.70;99.90;;;;;;4985065;28;20086;-88
2023/07/25 02:20:44;;;;;;;2.95;2.00;;;9.70;99.90;;;;;;4985195;28;20018;-86
2023/07/25 02:23:10;;;;;;;3.88;1.90;;;9.60;99.90;;;;;;4985140;28;20094;-86
2023/07/25 02:25:36;;;;;;;3.65;2.05;;;9.60;99.90;;;;;;4985010;28;20039;-88
2023/07/25 02:28:01;;;;;;;5.18;2.15;;;9.50;99.90;;;;;;4984627;28;20043;-85
2023/07/25 02:30:27;;;;;;;6.50;2.28;;;9.50;99.90;;;;;;5001752;28;20069;-85
2023/07/25 02:32:53;;;;;;;3.42;2.33;;;9.50;99.90;;;;;;4984943;28;20022;-91
2023/07/25 02:35:20;;;;;;;1.70;1.60;;;9.40;99.90;;;;;;4984337;28;20023;-90
2023/07/25 02:37:45;;;;;;;5.50;1.92;;;9.40;99.90;;;;;;4965510;28;20039;-93
2023/07/25 02:40:11;;;;;;;3.60;1.83;;;9.30;99.90;;;;;;4975271;28;20041;-92
2023/07/25 02:42:38;;;;;;;6.30;1.85;;;9.30;99.90;;;;;;4974900;28;20038;-95
2023/07/25 02:45:04;;;;;;;7.07;2.15;;;9.30;99.90;;;;;;4975133;28;20051;-92
2023/07/25 02:47:30;;;;;;;3.63;2.20;;;9.30;99.90;;;;;;4989815;28;20106;-94
2023/07/25 02:49:58;;;;;;;5.72;2.17;;;9.20;99.90;;;;;;4973043;28;20070;-93
2023/07/25 02:52:23;;;;;;;7.18;2.28;;;9.20;99.90;;;;;;4983283;28;20023;-92
2023/07/25 02:54:49;;;;;;;4.53;2.03;;;9.20;99.90;;;;;;4983118;28;20098;-89
2023/07/25 02:57:15;;;;;;;4.38;1.80;;;9.20;99.90;;;;;;4982977;28;20023;-89
2023/07/25 02:59:40;;;;;;;5.75;2.10;;;9.20;99.90;;;;;;4984018;28;20046;-89
2023/07/25 03:02:09;;;;;;;3.03;1.90;;;9.10;99.90;;;;;;4981310;28;20031;-91
2023/07/25 03:04:35;;;;;;;7.63;2.10;;;9.10;99.90;;;;;;4982294;28;20031;-92
2023/07/25 03:07:02;;;;;;;4.90;2.22;;;9.10;99.90;;;;;;4983311;28;20014;-91
2023/07/25 03:09:29;;;;;;;4.95;2.03;;;9.10;99.90;;;;;;4979828;28;20034;-94
2023/07/25 03:11:55;;;;;;;5.28;1.83;;;9.00;99.90;;;;;;4979916;28;20033;-93
2023/07/25 03:14:22;;;;;;;4.20;1.92;;;9.00;99.90;;;;;;4963430;28;20022;-93
2023/07/25 03:16:48;;;;;;;2.50;1.80;;;9.00;99.90;;;;;;4966071;28;20023;-94
2023/07/25 03:19:13;;;;;;;4.45;1.90;;;8.90;99.90;;;;;;4968255;28;20065;-94
2023/07/25 03:21:39;;;;;;;5.03;1.88;;;8.90;99.90;;;;;;4970139;28;20023;-92
2023/07/25 03:24:05;;;;;;;3.35;2.10;;;8.90;99.90;;;;;;4983335;28;20490;-93
2023/07/25 03:26:32;;;;;;;3.85;1.75;;;8.80;99.90;;;;;;4963869;28;20058;-95
2023/07/25 03:28:58;;;;;;;8.43;2.17;;;8.80;99.90;;;;;;4981118;28;20026;-92
2023/07/25 03:31:23;;;;;;;2.95;1.70;;;8.80;99.90;;;;;;4965402;28;20027;-93
2023/07/25 03:33:49;;;;;;;8.73;1.80;;;8.70;99.90;;;;;;4965924;28;20031;-92
2023/07/25 03:36:14;;;;;;;4.57;1.70;;;8.70;99.90;;;;;;4983417;28;20487;-94
2023/07/25 03:38:41;;;;;;;9.75;2.00;;;8.70;99.90;;;;;;4965105;28;20026;-93
2023/07/25 03:41:08;;;;;;;6.22;2.00;;;8.70;99.90;;;;;;4964825;28;20505;-93
2023/07/25 03:43:34;;;;;;;4.30;2.05;;;8.60;99.90;;;;;;4965692;28;20035;-95
2023/07/25 03:45:59;;;;;;;4.60;2.25;;;8.60;99.90;;;;;;4969916;28;20108;-95
2023/07/25 03:48:25;;;;;;;5.72;1.98;;;8.60;99.90;;;;;;4995414;28;20053;-91
2023/07/25 03:50:51;;;;;;;4.85;2.30;;;8.50;99.90;;;;;;4972862;28;20041;-96
2023/07/25 03:53:16;;;;;;;5.82;1.98;;;8.60;99.90;;;;;;4965581;28;20023;-95
2023/07/25 03:55:42;;;;;;;6.90;2.17;;;8.50;99.90;;;;;;4964724;28;20031;-96
2023/07/25 03:58:07;;;;;;;3.17;2.22;;;8.50;99.90;;;;;;4970367;28;20046;-93
2023/07/25 04:00:33;;;;;;;3.15;2.17;;;8.50;99.90;;;;;;4969213;28;20130;-92
2023/07/25 04:03:00;;;;;;;4.70;2.17;;;8.50;99.90;;;;;;4970749;28;20031;-95
2023/07/25 04:05:25;;;;;;;4.78;2.38;;;8.40;99.90;;;;;;4965317;28;20042;-93
2023/07/25 04:07:51;;;;;;;4.53;2.22;;;8.40;99.90;;;;;;4964402;28;20033;-94
2023/07/25 04:10:17;;;;;;;4.28;2.22;;;8.40;99.90;;;;;;4963717;28;20046;-94
2023/07/25 04:12:42;;;;;;;5.53;2.20;;;8.40;99.90;;;;;;4980655;28;20019;-94
2023/07/25 04:15:08;;;;;;;3.72;2.10;;;8.40;99.90;;;;;;4961872;28;20504;-95
2023/07/25 04:17:34;;;;;;;4.50;2.47;;;8.40;99.90;;;;;;4976635;28;20011;-92
2023/07/25 04:20:00;;;;;;;4.07;2.85;;;8.40;99.90;;;;;;4982517;28;20019;-91
2023/07/25 04:22:25;;;;;;;7.72;3.45;;;8.40;99.90;;;;;;4979893;28;20026;-93
2023/07/25 04:24:51;;;;;;;3.22;2.60;;;8.40;99.90;;;;;;4981524;28;20059;-88
2023/07/25 04:27:17;;;;;;;12.70;3.40;;;8.40;99.90;;;;;;4982397;28;20038;-91
2023/07/25 04:29:42;;;;;;;3.85;2.28;;;8.40;99.90;;;;;;4980694;28;20038;-91
2023/07/25 04:32:08;;;;;;;5.93;2.03;;;8.40;99.90;;;;;;4981855;28;20019;-87
2023/07/25 04:34:35;;;;;;;3.15;1.90;;;8.40;99.90;;;;;;4981689;28;20050;-87
2023/07/25 04:37:02;;;;;;;2.40;1.90;;;8.40;99.90;;;;;;4998587;28;20078;-90
2023/07/25 04:39:27;;;;;;;6.63;2.17;;;8.30;99.90;;;;;;4979298;28;20031;-86
2023/07/25 04:41:54;;;;;;;3.67;2.08;;;8.30;99.90;;;;;;4978150;28;20137;-93
2023/07/25 04:44:20;;;;;;;3.42;2.25;;;8.30;99.90;;;;;;4973569;28;20062;-94
2023/07/25 04:46:46;;;;;;;3.47;2.00;;;8.30;99.90;;;;;;4973459;28;20070;-92
2023/07/25 04:49:12;;;;;;;5.40;2.30;;;8.30;99.90;;;;;;4970789;28;20037;-94
2023/07/25 04:51:39;;;;;;;4.53;2.05;;;8.30;99.90;;;;;;4988867;28;20038;-94
2023/07/25 04:54:05;;;;;;;5.32;2.15;;;8.30;99.90;;;;;;4971728;28;20037;-94
2023/07/25 04:56:31;;;;;;;4.10;2.10;;;8.30;99.90;;;;;;4969487;28;20031;-94
2023/07/25 04:58:57;;;;;;;4.65;2.10;;;8.30;99.90;;;;;;4968910;28;20130;-94
2023/07/25 05:01:23;;;;;;;8.75;1.95;;;8.40;99.90;;;;;;4968637;28;20034;-95
2023/07/25 05:03:48;;;;;;;6.70;2.50;;;8.30;99.90;;;;;;4984922;28;20035;-94
2023/07/25 05:06:15;;;;;;;3.03;2.30;;;8.40;99.90;;;;;;4969519;28;20054;-92
2023/07/25 05:08:41;;;;;;;5.63;2.75;;;8.50;99.90;;;;;;4967958;28;20023;-95
2023/07/25 05:11:07;;;;;;;4.88;2.40;;;8.50;99.90;;;;;;4965368;28;20280;-94
2023/07/25 05:13:32;;;;;;;5.70;2.42;;;8.50;99.90;;;;;;4963586;28;20049;-92
2023/07/25 05:15:58;;;;;;;5.00;2.88;;;8.60;99.90;;;;;;4967405;28;20026;-93
2023/07/25 05:18:25;;;;;;;6.50;2.67;;;8.70;99.90;;;;;;4968580;28;20054;-94
2023/07/25 05:20:50;;;;;;;5.10;2.50;;;8.80;99.90;;;;;;4988258;28;20038;-91
2023/07/25 05:23:16;;;;;;;5.68;3.00;;;8.90;99.90;;;;;;4986100;28;20058;-93
2023/07/25 05:25:45;;;;;;;6.05;2.67;;;8.90;99.90;;;;;;4971177;28;20054;-94
2023/07/25 05:28:11;;;;;;;4.97;2.47;;;9.00;99.90;;;;;;4976217;28;20034;-92
2023/07/25 05:30:37;;;;;;;6.40;2.80;;;9.10;99.90;;;;;;4955907;28;20046;-93
2023/07/25 05:33:03;;;;;;;6.53;2.80;;;9.20;99.90;;;;;;4974618;28;20031;-94
2023/07/25 05:35:29;;;;;;;8.82;2.95;;;9.30;99.90;;;;;;4978562;28;20110;-91
2023/07/25 05:37:55;;;;;;;5.05;2.85;;;9.40;99.90;;;;;;4996600;28;20023;-93
2023/07/25 05:40:20;;;;;;;7.05;3.28;;;9.40;99.90;;;;;;4976682;28;20023;-91
2023/07/25 05:42:47;;;;;;;4.53;2.63;;;9.60;99.90;;;;;;4975230;28;20031;-91
2023/07/25 05:45:13;;;;;;;5.55;3.00;;;9.60;99.90;;;;;;4976300;28;20031;-93
2023/07/25 05:47:38;;;;;;;6.68;3.72;;;9.70;99.90;;;;;;4974585;28;20033;-90
2023/07/25 05:50:05;;;;;;;7.18;2.55;;;9.80;99.90;;;;;;4977185;28;20042;-93
2023/07/25 05:52:31;;;;;;;6.70;2.83;;;9.90;99.90;;;;;;4982306;28;20023;-89
2023/07/25 05:54:57;;;;;;;3.97;2.67;;;9.90;99.90;;;;;;4982742;28;20062;-89
2023/07/25 05:57:22;;;;;;;3.90;2.65;;;10.00;99.90;;;;;;4982574;28;20089;-92
2023/07/25 05:59:48;;;;;;;4.82;2.70;;;10.10;99.90;;;;;;4981089;28;20030;-89
2023/07/25 06:02:16;;;;;;;9.93;2.47;;;10.10;99.90;;;;;;4985235;28;20038;-87
2023/07/25 06:04:43;;;;;;;4.70;2.38;;;10.20;99.90;;;;;;4984653;28;20027;-88
2023/07/25 06:07:08;;;;;;;7.05;2.33;;;10.30;99.90;;;;;;4984935;28;20074;-89
2023/07/25 06:09:34;;;;;;;3.50;2.17;;;10.40;99.90;;;;;;4985379;28;20023;-85
2023/07/25 06:12:00;;;;;;;3.63;2.30;;;10.50;99.90;;;;;;4985473;28;20057;-86
2023/07/25 06:14:25;;;;;;;6.32;2.33;;;10.60;99.90;;;;;;4984500;28;20030;-87
2023/07/25 06:16:51;;;;;;;5.18;2.47;;;10.60;99.90;;;;;;4985143;28;20011;-86
2023/07/25 06:19:17;;;;;;;5.40;2.40;;;10.70;99.90;;;;;;5001791;28;20030;-86
2023/07/25 06:21:42;;;;;;;7.55;2.20;;;10.80;99.90;;;;;;4985021;28;20039;-86
2023/07/25 06:24:08;;;;;;;6.50;2.63;;;10.90;99.90;;;;;;4985162;28;20018;-85
2023/07/25 06:26:34;;;;;;;5.50;2.42;;;10.90;99.90;;;;;;4968955;28;20030;-87
2023/07/25 06:29:07;;;;;;;7.47;2.50;;;11.00;99.90;;;;;;4985010;28;20043;-87
2023/07/25 06:31:32;;;;;;;6.70;2.40;;;11.10;99.90;;;;;;4986937;28;20082;-85
2023/07/25 06:33:59;;;;;;;5.32;2.88;;;11.10;99.90;;;;;;5000963;28;20015;-85
2023/07/25 06:36:24;;;;;;;5.63;2.20;;;11.10;99.90;;;;;;5001171;28;20046;-88
2023/07/25 06:38:50;;;;;;;6.93;3.58;;;11.20;99.90;;;;;;5020198;28;20026;-88
2023/07/25 06:41:16;;;;;;;9.30;4.03;;;11.20;99.90;;;;;;5020965;28;20074;-87
2023/07/25 06:43:41;;;;;;;9.55;3.33;;;11.20;99.90;;;;;;5004054;28;20022;-88
2023/07/25 06:46:07;;;;;;;7.40;3.80;;;11.30;99.90;;;;;;4990224;28;20053;-93
2023/07/25 06:48:32;;;;;;;9.75;3.92;;;11.30;99.90;;;;;;4974110;28;20026;-94
2023/07/25 06:50:58;;;;;;;7.72;4.15;;;11.30;99.90;;;;;;4972632;28;20035;-91
2023/07/25 06:53:24;;;;;;;11.07;4.28;;;11.30;99.90;;;;;;4976630;28;20086;-92
2023/07/25 06:55:49;;;;;;;7.63;5.35;;;11.40;99.90;;;;;;4979488;28;20026;-92
2023/07/25 06:58:15;;;;;;;6.78;3.95;;;11.40;99.90;;;;;;4975583;28;20086;-93
2023/07/25 07:00:41;;;;;;;7.65;5.47;;;11.40;99.90;;;;;;4972606;28;20030;-96
2023/07/25 07:03:07;;;;;;;12.65;5.70;;;11.40;99.90;;;;;;4973621;28;20034;-94
2023/07/25 07:05:33;;;;;;;10.00;5.28;;;11.50;99.90;;;;;;4971809;28;20059;-94
2023/07/25 07:07:59;;;;;;;7.72;5.57;;;11.50;99.90;;;;;;4970520;28;20033;-93
2023/07/25 07:10:25;;;;;;;11.05;4.95;;;11.50;99.90;;;;;;4969545;28;20543;-94
2023/07/25 07:12:53;;;;;;;6.93;3.90;;;11.60;99.90;;;;;;4972852;28;20026;-94
2023/07/25 07:15:21;;;;;;;7.95;4.70;;;11.70;99.90;;;;;;4974824;28;20061;-94
2023/07/25 07:17:51;;;;;;;6.20;4.78;;;11.70;99.90;;;;;;4977242;28;20078;-92
2023/07/25 07:20:17;;;;;;;7.30;4.07;;;11.80;99.90;;;;;;4974567;28;20531;-93
2023/07/25 07:22:43;;;;;;;6.13;4.40;;;11.90;99.90;;;;;;4971832;28;20031;-94
2023/07/25 07:25:12;;;;;;;8.52;4.85;;;11.90;99.90;;;;;;4972720;28;20026;-94
2023/07/25 07:27:39;;;;;;;6.22;4.72;;;12.00;99.90;;;;;;4978057;28;20081;-89
2023/07/25 07:30:06;;;;;;;6.65;4.85;;;12.10;99.90;;;;;;4980030;28;20038;-93
2023/07/25 07:32:31;;;;;;;9.52;5.10;;;12.10;99.90;;;;;;4977330;28;20022;-94
2023/07/25 07:34:58;;;;;;;7.63;5.57;;;12.10;99.90;;;;;;4995829;28;20046;-90
2023/07/25 07:37:23;;;;;;;5.72;4.75;;;12.20;99.90;;;;;;4978058;28;20027;-92
2023/07/25 07:39:49;;;;;;;6.95;3.97;;;12.30;99.90;;;;;;4974956;28;20023;-92
2023/07/25 07:42:15;;;;;;;6.50;3.58;;;12.50;99.90;;;;;;4972810;28;20125;-94
2023/07/25 07:44:43;;;;;;;6.85;3.00;;;12.60;99.90;;;;;;4971248;28;20035;-91
2023/07/25 07:47:09;;;;;;;2.60;2.40;;;12.70;99.90;;;;;;4991418;28;20030;-94
2023/07/25 07:49:36;;;;;;;5.88;2.63;;;12.70;99.90;;;;;;4973220;28;20030;-95
2023/07/25 07:52:02;;;;;;;4.47;2.45;;;12.80;99.90;;;;;;4953688;29;20047;-93
2023/07/25 07:54:27;;;;;;;2.65;2.20;;;12.80;99.90;;;;;;4956672;29;20027;-93
2023/07/25 07:56:53;;;;;;;6.15;2.55;;;12.90;99.90;;;;;;4959080;29;20031;-92
2023/07/25 07:59:19;;;;;;;6.32;2.38;;;13.00;99.90;;;;;;4956077;29;20149;-94
2023/07/25 08:01:44;;;;;;;2.78;2.17;;;13.10;99.90;;;;;;4969248;28;20039;-94
2023/07/25 08:04:18;;;;;;;3.45;1.80;;;13.20;99.90;;;;;;4969732;28;20033;-94
2023/07/25 08:06:43;;;;;;;3.33;1.90;;;13.20;99.90;;;;;;4990054;28;20035;-94
2023/07/25 08:09:09;;;;;;;5.53;1.85;;;13.30;99.90;;;;;;4966357;28;20056;-93
2023/07/25 08:11:35;;;;;;;3.17;1.92;;;13.40;99.90;;;;;;4963686;28;20031;-94
2023/07/25 08:14:01;;;;;;;4.30;1.80;;;13.50;99.90;;;;;;4969776;28;20034;-92
2023/07/25 08:16:27;;;;;;;2.33;1.83;;;13.50;99.90;;;;;;4972543;28;20031;-93
2023/07/25 08:18:52;;;;;;;3.88;1.90;;;13.60;99.90;;;;;;4972939;28;20022;-94
2023/07/25 08:21:19;;;;;;;4.25;2.13;;;13.70;99.90;;;;;;4972326;28;20039;-95
2023/07/25 08:23:44;;;;;;;1.90;1.45;;;13.70;99.90;;;;;;4990167;28;20027;-94
2023/07/25 08:26:10;;;;;;;2.88;1.40;;;13.80;99.90;;;;;;4979601;28;20063;-92
2023/07/25 08:28:36;;;;;;;2.85;1.45;;;13.80;99.90;;;;;;4981718;28;20011;-91
2023/07/25 08:31:03;;;;;;;1.88;1.40;;;13.80;99.90;;;;;;4982033;28;20026;-90
2023/07/25 08:33:32;;;;;;;1.92;1.30;;;13.80;99.90;;;;;;4979301;28;20026;-94
2023/07/25 08:35:58;;;;;;;2.83;1.88;;;13.70;99.90;;;;;;4969412;28;20089;-93
2023/07/25 08:38:24;;;;;;;3.15;1.60;;;13.80;99.90;;;;;;4967424;28;20027;-93
2023/07/25 08:41:01;;;;;;;4.50;1.85;;;13.70;99.90;;;;;;4962773;28;20047;-93
2023/07/25 08:43:28;;;;;;;1.65;1.55;;;13.70;99.90;;;;;;4958510;28;20550;-92
2023/07/25 08:45:59;;;;;;;2.75;1.33;;;13.70;99.90;;;;;;4957941;28;20126;-93
2023/07/25 08:48:27;;;;;;;6.25;1.92;;;13.80;99.90;;;;;;4958630;28;20161;-94
2023/07/25 08:50:56;;;;;;;1.98;1.50;;;14.00;99.90;;;;;;4956141;28;20057;-93
2023/07/25 08:53:24;;;;;;;4.63;1.83;;;14.20;99.90;;;;;;4958502;28;20027;-93
2023/07/25 08:55:52;;;;;;;4.85;1.38;;;14.30;99.90;;;;;;4958508;28;20059;-94
2023/07/25 08:58:18;;;;;;;1.67;1.25;;;14.40;99.90;;;;;;4959217;28;20037;-94
2023/07/25 09:00:45;;;;;;;4.07;1.35;;;14.60;99.90;;;;;;4958426;28;20058;-94
2023/07/25 09:03:11;;;;;;;4.80;1.80;;;14.80;99.90;;;;;;4958272;28;20464;-92
2023/07/25 09:05:37;;;;;;;2.15;1.45;;;15.10;99.90;;;;;;4975065;28;20048;-95
2023/07/25 09:08:03;;;;;;;2.33;1.33;;;15.40;99.90;;;;;;4958343;28;20031;-94
2023/07/25 09:10:30;;;;;;;2.15;1.30;;;15.50;99.90;;;;;;4958513;28;20027;-93
2023/07/25 09:12:55;;;;;;;2.05;1.40;;;15.70;99.90;;;;;;4959012;28;20027;-93
2023/07/25 09:15:21;;;;;;;5.13;1.40;;;15.90;99.90;;;;;;4957291;28;20562;-94
2023/07/25 09:17:48;;;;;;;2.55;1.17;;;15.90;99.90;;;;;;4957398;28;20027;-93
2023/07/25 09:20:14;;;;;;;3.47;1.20;;;15.90;99.90;;;;;;4957877;28;20042;-94
2023/07/25 09:22:46;;;;;;;4.88;1.52;;;16.00;99.90;;;;;;4957402;28;20019;-94
2023/07/25 09:25:16;;;;;;;3.33;1.30;;;16.10;99.90;;;;;;4955831;28;20500;-94
2023/07/25 09:27:46;;;;;;;1.80;1.23;;;16.30;99.90;;;;;;4958188;28;20050;-95
2023/07/25 09:30:15;;;;;;;5.28;1.20;;;16.40;99.90;;;;;;4955509;28;20428;-94
2023/07/25 09:32:47;;;;;;;4.70;1.33;;;16.50;99.90;;;;;;4958418;28;20019;-94
2023/07/25 09:35:12;;;;;;;3.58;1.20;;;16.70;99.90;;;;;;4956868;28;20077;-94
2023/07/25 09:37:38;;;;;;;2.97;0.95;;;16.90;99.90;;;;;;4958295;28;20110;-94
2023/07/25 09:40:11;;;;;;;5.82;1.20;;;17.00;99.90;;;;;;4958399;28;20050;-93
2023/07/25 09:42:41;;;;;;;3.05;1.42;;;17.20;99.90;;;;;;4957780;28;20034;-93
2023/07/25 09:45:08;;;;;;;3.47;1.30;;;17.50;99.90;;;;;;4958233;28;20054;-95
2023/07/25 09:47:35;;;;;;;3.53;1.00;;;17.60;99.00;;;;;;4959471;28;20486;-94
2023/07/25 09:50:04;;;;;;;1.63;1.20;;;17.90;98.00;;;;;;4959774;28;20023;-95
2023/07/25 09:52:39;;;;;;;1.83;1.17;;;18.10;96.90;;;;;;4976699;28;20031;-94
2023/07/25 09:55:06;;;;;;;2.08;1.13;;;18.20;96.00;;;;;;4977519;28;20535;-94
2023/07/25 09:57:33;;;;;;;3.28;1.20;;;18.30;95.40;;;;;;4961022;28;20102;-92
2023/07/25 10:00:00;;;;;;;1.92;1.20;;;18.40;94.50;;;;;;4964281;28;20031;-95
2023/07/25 10:02:26;;;;;;;2.63;1.08;;;18.40;93.90;;;;;;4969438;28;20034;-95
2023/07/25 10:04:55;;;;;;;2.95;1.30;;;18.50;93.40;;;;;;4962996;28;20492;-95
2023/07/25 10:07:24;;;;;;;2.95;1.30;;;18.60;92.20;;;;;;4966255;28;20078;-94
2023/07/25 10:09:51;;;;;;;1.70;1.15;;;18.70;91.70;;;;;;4964916;28;20507;-94
2023/07/25 10:12:17;;;;;;;3.67;1.58;;;18.90;91.30;;;;;;4972556;28;20023;-91
2023/07/25 10:14:43;;;;;;;1.98;1.02;;;19.00;90.20;;;;;;4970731;28;20090;-94
2023/07/25 10:17:09;;;;;;;2.17;1.00;;;19.00;89.00;;;;;;4971945;28;20027;-95
2023/07/25 10:19:47;;;;;;;2.10;1.23;;;19.00;88.00;;;;;;4987765;28;20019;-95
2023/07/25 10:22:13;;;;;;;2.38;1.00;;;19.00;87.80;;;;;;4966744;28;20038;-94
2023/07/25 10:24:38;;;;;;;2.70;1.23;;;18.90;87.20;;;;;;4968351;28;20103;-95
2023/07/25 10:27:09;;;;;;;2.55;1.38;;;18.90;86.90;;;;;;4970848;28;20065;-92
2023/07/25 10:29:49;;;;;;;4.30;1.75;;;18.90;87.10;;;;;;4976793;28;20023;-92
2023/07/25 10:32:22;;;;;;;2.03;1.13;;;18.90;87.00;;;;;;4978887;28;20102;-94
2023/07/25 10:35:00;;;;;;;3.35;1.35;;;19.00;86.90;;;;;;4974361;28;20051;-95
2023/07/25 10:37:30;;;;;;;1.60;1.10;;;19.20;86.70;;;;;;4981142;28;20054;-93
2023/07/25 10:40:08;;;;;;;1.00;0.90;;;19.50;84.40;;;;;;4981318;28;20026;-92
2023/07/25 10:42:44;;;;;;;3.50;1.38;;;19.70;83.40;;;;;;4978296;28;20033;-93
2023/07/25 10:45:48;;;;;;;4.55;1.20;;;19.70;81.50;;;;;;4977441;28;20126;-93
2023/07/25 10:48:46;;;;;;;1.50;0.90;;;19.80;80.40;;;;;;4978132;28;20038;-93
2023/07/25 10:51:13;;;;;;;1.77;1.05;;;19.90;79.90;;;;;;4974253;28;20036;-92
2023/07/25 10:53:39;;;;;;;2.80;1.10;;;20.00;79.40;;;;;;4973612;28;20019;-92
2023/07/25 10:56:05;;;;;;;1.13;0.77;;;20.10;79.30;;;;;;4991414;28;20035;-92
2023/07/25 10:58:38;;;;;;;2.95;0.88;;;20.10;79.50;;;;;;4974671;28;20046;-93
2023/07/25 11:01:05;;;;;;;1.75;0.98;;;20.00;79.30;;;;;;4975322;28;20051;-93
2023/07/25 11:03:35;;;;;;;2.22;0.90;;;19.80;79.10;;;;;;4973712;28;20029;-93
2023/07/25 11:06:07;;;;;;;3.40;0.98;;;19.70;79.30;;;;;;4966932;28;20118;-94
2023/07/25 11:08:38;;;;;;;3.30;1.30;;;19.50;79.60;;;;;;4961687;28;20026;-94
2023/07/25 11:11:06;;;;;;;2.80;1.20;;;19.20;79.80;;;;;;4960771;28;20492;-94
2023/07/25 11:13:33;;;;;;;5.35;1.17;;;19.10;80.30;;;;;;4959369;28;20019;-93
2023/07/25 11:16:07;;;;;;;1.20;0.88;;;19.00;81.10;;;;;;4962100;28;20560;-95
2023/07/25 11:18:35;;;;;;;3.97;1.10;;;18.90;81.30;;;;;;4980897;28;20042;-94
2023/07/25 11:21:04;;;;;;;1.20;0.80;;;18.80;82.00;;;;;;4960795;28;20085;-92
2023/07/25 11:23:30;;;;;;;1.75;1.08;;;18.70;82.50;;;;;;4961513;28;20086;-94
2023/07/25 11:25:58;;;;;;;2.65;1.40;;;18.80;83.20;;;;;;4964346;28;20042;-94
2023/07/25 11:28:25;;;;;;;2.55;1.05;;;18.80;83.20;;;;;;4975006;28;20031;-94
2023/07/25 11:30:51;;;;;;;2.97;1.40;;;18.80;83.30;;;;;;4977780;28;20099;-95
2023/07/25 11:33:18;;;;;;;1.52;0.90;;;18.80;83.10;;;;;;4973043;28;20066;-93
2023/07/25 11:35:44;;;;;;;2.50;1.05;;;18.80;82.80;;;;;;4979008;28;20034;-91
2023/07/25 11:38:10;;;;;;;2.83;1.10;;;18.80;82.80;;;;;;4992257;28;20078;-89
2023/07/25 11:40:40;;;;;;;2.70;1.40;;;18.80;82.10;;;;;;4998650;28;20019;-90
2023/07/25 11:43:12;;;;;;;6.20;1.00;;;18.80;82.40;;;;;;5000008;28;20022;-94
2023/07/25 11:45:39;;;;;;;2.38;1.23;;;18.80;82.70;;;;;;4981654;28;20066;-89
2023/07/25 11:48:08;;;;;;;3.20;1.10;;;18.90;82.80;;;;;;4969856;28;20050;-95
2023/07/25 11:50:35;;;;;;;2.08;0.98;;;19.10;83.30;;;;;;4963341;28;20106;-94
2023/07/25 11:53:01;;;;;;;0.80;0.80;;;19.50;83.10;;;;;;4963326;28;20022;-95
2023/07/25 11:55:28;;;;;;;1.73;0.85;;;20.00;82.10;;;;;;4961657;28;20135;-95
2023/07/25 11:57:55;;;;;;;1.20;0.82;;;20.40;81.00;;;;;;4943972;29;20027;-95
2023/07/25 12:00:22;;;;;;;4.47;1.60;;;20.70;79.10;;;;;;4944800;29;20027;-95
2023/07/25 12:02:48;;;;;;;3.60;1.50;;;20.90;77.50;;;;;;4962952;28;20042;-95
2023/07/25 12:05:30;;;;;;;1.85;1.00;;;21.00;76.50;;;;;;4963603;28;20042;-96
2023/07/25 12:08:03;;;;;;;4.13;2.08;;;21.20;75.10;;;;;;4965771;28;20027;-95
2023/07/25 12:10:32;;;;;;;3.05;1.33;;;21.30;74.30;;;;;;4965934;28;20030;-95
2023/07/25 12:12:58;;;;;;;2.35;0.85;;;21.20;73.70;;;;;;4962674;28;20511;-93
2023/07/25 12:15:44;;;;;;;3.33;1.00;;;21.10;73.60;;;;;;4960094;28;20030;-95
2023/07/25 12:18:26;;;;;;;1.52;1.08;;;21.10;73.50;;;;;;4957132;29;20027;-94
2023/07/25 12:20:53;;;;;;;2.33;0.93;;;21.30;73.40;;;;;;4944192;28;20070;-96
2023/07/25 12:23:27;;;;;;;1.50;0.80;;;21.20;72.40;;;;;;4970876;28;20473;-95
2023/07/25 12:25:53;;;;;;;1.77;0.95;;;21.20;71.90;;;;;;4975590;28;20118;-95
2023/07/25 12:28:19;;;;;;;1.45;0.80;;;21.30;71.90;;;;;;4970857;28;20027;-95
2023/07/25 12:30:45;;;;;;;2.42;1.15;;;21.40;71.80;;;;;;4978098;28;20034;-94
2023/07/25 12:33:10;;;;;;;0.95;0.70;;;21.30;71.00;;;;;;4974665;28;20065;-96
2023/07/25 12:35:36;;;;;;;8.10;1.00;;;21.30;70.90;;;;;;4979777;28;20050;-95
2023/07/25 12:38:02;;;;;;;1.73;0.70;;;21.20;71.50;;;;;;4967078;28;20085;-94
2023/07/25 12:40:27;;;;;;;1.42;0.77;;;21.00;73.00;;;;;;4950551;28;20110;-96
2023/07/25 12:42:53;;;;;;;2.35;0.98;;;20.70;74.10;;;;;;4972012;28;20033;-94
2023/07/25 12:45:18;;;;;;;1.35;0.70;;;20.60;75.20;;;;;;4973182;28;20070;-95
2023/07/25 12:47:44;;;;;;;0.95;0.75;;;20.70;76.10;;;;;;4979968;28;20065;-96
2023/07/25 12:50:10;;;;;;;1.38;0.70;;;20.60;75.90;;;;;;4985425;28;20035;-94